< < Back
Terminal Aerodrome Forecast


Current Version              Previous Versions:   1  2  3  4  5  6  7  8  9  

Terminal Aerodrome Forecast

585
FTUS42 KGSP 010500
TAFAVL
TAF
KAVL 010538Z 0106/0206 00000KT P6SM SKC
     FM010800 00000KT 5SM BR SCT008
     FM011000 00000KT 3SM BR SCT005
      TEMPO 0110/0113 1SM BR BKN005
     FM011400 00000KT P6SM BKN015
     FM011500 34005KT P6SM SCT060
     FM012200 17005KT P6SM FEW060=

Latest METAR

565
SAUS70 KWBC 300800 RRW
MTRAVL
METAR KAVL 010754Z AUTO 00000KT 1/2SM R34/1200V2000FT FG VV002 12/11
A3001 RMK AO2 SLP141 T01170111


USA.gov is the U.S. government's official web portal to all federal, state and local government web resources and services.